Time;durP1;ratioP1;P1;durP2;ratioP2;P2;SDS_P1;SDS_P2;PMS_P1;PMS_P2;Temp;Humidity;BMP_temperature;BMP_pressure;BME280_temperature;BME280_humidity;BME280_pressure;Samples;Min_cycle;Max_cycle;Signal;HPM_P1;HPM_P2
2023/12/26 00:00:46;;;;;;;6.43;5.40;;;6.00;99.90;;;;;;5073867;28;20178;-78
2023/12/26 00:03:12;;;;;;;7.67;5.60;;;6.00;99.90;;;;;;5057459;28;20212;-78
2023/12/26 00:05:39;;;;;;;10.40;5.77;;;6.10;99.90;;;;;;5056283;28;20195;-78
2023/12/26 00:08:07;;;;;;;11.30;5.60;;;6.10;99.90;;;;;;5037452;28;20172;-81
2023/12/26 00:10:33;;;;;;;6.23;5.33;;;6.10;99.90;;;;;;5055333;28;20679;-80
2023/12/26 00:13:00;;;;;;;7.73;5.20;;;6.10;99.90;;;;;;5055652;28;20251;-77
2023/12/26 00:15:27;;;;;;;7.10;5.00;;;6.10;99.90;;;;;;5065056;28;20178;-78
2023/12/26 00:17:53;;;;;;;6.07;5.03;;;6.10;99.90;;;;;;5063315;28;20175;-76
2023/12/26 00:20:18;;;;;;;6.77;5.70;;;6.00;99.90;;;;;;5066423;28;20186;-78
2023/12/26 00:22:44;;;;;;;7.47;5.30;;;5.90;99.90;;;;;;5064863;28;20174;-76
2023/12/26 00:25:11;;;;;;;6.53;5.60;;;6.30;99.90;;;;;;5046760;28;20186;-78
2023/12/26 00:27:38;;;;;;;6.37;5.03;;;5.90;99.90;;;;;;5056832;28;20252;-79
2023/12/26 00:30:06;;;;;;;5.70;4.90;;;5.90;99.90;;;;;;5055981;28;20236;-78
2023/12/26 00:32:32;;;;;;;5.40;4.77;;;5.90;99.90;;;;;;5056420;28;20585;-78
2023/12/26 00:34:58;;;;;;;5.90;5.23;;;5.80;99.90;;;;;;5056637;28;20179;-76
2023/12/26 00:37:24;;;;;;;5.50;4.60;;;5.80;99.90;;;;;;5055101;28;20177;-77
2023/12/26 00:39:50;;;;;;;12.20;4.73;;;5.80;99.90;;;;;;5063003;28;20164;-78
2023/12/26 00:42:17;;;;;;;7.03;4.57;;;5.80;99.90;;;;;;5065429;28;20186;-79
2023/12/26 00:44:42;;;;;;;5.50;4.70;;;5.70;99.90;;;;;;5055389;28;20210;-80
2023/12/26 00:47:08;;;;;;;9.67;4.87;;;5.60;99.90;;;;;;5054902;28;20222;-79
2023/12/26 00:49:34;;;;;;;5.30;4.77;;;5.60;99.90;;;;;;5053957;28;20234;-77
2023/12/26 00:52:01;;;;;;;5.10;4.60;;;5.60;99.90;;;;;;5038573;28;20197;-77
2023/12/26 00:54:27;;;;;;;5.20;4.40;;;5.60;99.90;;;;;;5058341;28;20206;-79
2023/12/26 00:56:53;;;;;;;5.63;4.50;;;5.60;99.90;;;;;;5070341;28;20177;-78
2023/12/26 00:59:19;;;;;;;4.87;4.37;;;5.60;99.90;;;;;;5066991;28;20215;-76
2023/12/26 01:01:44;;;;;;;4.97;4.30;;;5.70;99.90;;;;;;5061599;28;20308;-78
2023/12/26 01:04:10;;;;;;;5.17;4.77;;;5.60;99.90;;;;;;5064578;28;20199;-76
2023/12/26 01:06:36;;;;;;;4.53;4.00;;;5.60;99.90;;;;;;5074341;28;20209;-77
2023/12/26 01:09:02;;;;;;;6.27;4.77;;;5.60;99.90;;;;;;5040154;28;20186;-78
2023/12/26 01:11:31;;;;;;;3.83;3.53;;;5.50;99.90;;;;;;5055199;28;20266;-80
2023/12/26 01:13:58;;;;;;;4.53;4.10;;;5.50;99.90;;;;;;5055125;28;20193;-77
2023/12/26 01:16:27;;;;;;;4.37;3.90;;;5.60;99.90;;;;;;5055364;28;20251;-77
2023/12/26 01:18:53;;;;;;;4.50;4.20;;;5.60;99.90;;;;;;5055392;28;20160;-80
2023/12/26 01:21:22;;;;;;;4.43;3.70;;;5.50;99.90;;;;;;5054962;28;20172;-78
2023/12/26 01:23:48;;;;;;;5.40;4.20;;;5.60;99.90;;;;;;5055242;28;20188;-79
2023/12/26 01:26:15;;;;;;;4.07;3.67;;;5.50;99.90;;;;;;5054312;28;20684;-79
2023/12/26 01:28:41;;;;;;;5.43;4.33;;;5.50;99.90;;;;;;5054358;28;20185;-78
2023/12/26 01:31:07;;;;;;;4.73;3.67;;;5.50;99.90;;;;;;5054124;28;20216;-79
2023/12/26 01:33:33;;;;;;;5.03;4.47;;;5.40;99.90;;;;;;5037389;28;20182;-76
2023/12/26 01:35:59;;;;;;;6.97;3.73;;;5.30;99.90;;;;;;5069849;28;20264;-80
2023/12/26 01:38:26;;;;;;;5.07;3.63;;;5.30;99.90;;;;;;5069648;28;20149;-78
2023/12/26 01:40:51;;;;;;;4.20;3.83;;;5.40;99.90;;;;;;5065762;28;20651;-79
2023/12/26 01:43:17;;;;;;;8.10;3.90;;;5.40;99.90;;;;;;5054149;28;20176;-80
2023/12/26 01:45:43;;;;;;;5.37;4.27;;;5.30;99.90;;;;;;5054784;28;20265;-80
2023/12/26 01:48:10;;;;;;;4.17;3.53;;;5.20;99.90;;;;;;5036750;28;20178;-79
2023/12/26 01:50:37;;;;;;;4.20;3.47;;;5.20;99.90;;;;;;5054295;28;20201;-78
2023/12/26 01:53:03;;;;;;;4.43;3.80;;;5.10;99.90;;;;;;5054329;28;20288;-78
2023/12/26 01:55:30;;;;;;;4.27;3.87;;;5.10;99.90;;;;;;5054362;28;20173;-78
2023/12/26 01:57:58;;;;;;;4.50;4.10;;;5.10;99.90;;;;;;5054562;28;20181;-79
2023/12/26 02:00:24;;;;;;;4.83;3.80;;;5.00;99.90;;;;;;5054129;28;20233;-78
2023/12/26 02:02:52;;;;;;;6.13;4.27;;;4.90;99.90;;;;;;5054334;28;20237;-78
2023/12/26 02:05:18;;;;;;;9.73;5.13;;;4.90;99.90;;;;;;5054015;28;20185;-78
2023/12/26 02:07:44;;;;;;;5.77;5.10;;;4.70;99.90;;;;;;5054420;28;20247;-76
2023/12/26 02:10:09;;;;;;;6.53;5.37;;;4.60;99.90;;;;;;5060783;28;20212;-76
2023/12/26 02:12:35;;;;;;;8.37;5.43;;;4.60;99.90;;;;;;5053805;28;20172;-77
2023/12/26 02:15:03;;;;;;;8.90;5.23;;;4.70;99.90;;;;;;5054769;28;20246;-76
2023/12/26 02:17:29;;;;;;;7.80;6.20;;;4.60;99.90;;;;;;5062967;28;20170;-78
2023/12/26 02:19:55;;;;;;;8.97;5.87;;;4.70;99.90;;;;;;5070762;28;20164;-78
2023/12/26 02:22:21;;;;;;;8.73;5.67;;;4.70;99.90;;;;;;5061120;28;20526;-80
2023/12/26 02:24:47;;;;;;;6.60;6.00;;;4.70;99.90;;;;;;5053269;28;20595;-79
2023/12/26 02:27:36;;;;;;;8.13;5.93;;;4.70;99.90;;;;;;5052046;28;20182;-77
2023/12/26 02:30:04;;;;;;;10.67;6.33;;;4.70;99.90;;;;;;5052935;28;20293;-78
2023/12/26 02:32:30;;;;;;;6.97;6.23;;;4.60;99.90;;;;;;5058264;28;20177;-79
2023/12/26 02:35:00;;;;;;;9.10;6.27;;;4.60;99.90;;;;;;5053789;28;20179;-80
2023/12/26 02:37:26;;;;;;;7.53;6.50;;;4.60;99.90;;;;;;5053286;28;20179;-78
2023/12/26 02:39:52;;;;;;;6.97;6.00;;;4.60;99.90;;;;;;5053218;28;20247;-78
2023/12/26 02:42:22;;;;;;;7.67;6.30;;;4.60;99.90;;;;;;5053770;28;20181;-76
2023/12/26 02:44:48;;;;;;;9.17;6.27;;;4.50;99.90;;;;;;5053472;28;20185;-74
2023/12/26 02:47:14;;;;;;;9.20;7.03;;;4.50;99.90;;;;;;5056334;28;20175;-77
2023/12/26 02:49:40;;;;;;;9.67;7.47;;;4.40;99.90;;;;;;5072071;28;20182;-78
2023/12/26 02:52:06;;;;;;;10.70;8.40;;;4.40;99.90;;;;;;5053506;28;20174;-78
2023/12/26 02:54:32;;;;;;;14.43;9.00;;;4.50;99.90;;;;;;5069398;28;20163;-76
2023/12/26 02:56:58;;;;;;;12.80;9.27;;;4.50;99.90;;;;;;5054202;28;20176;-80
2023/12/26 02:59:23;;;;;;;14.03;9.57;;;4.40;99.90;;;;;;5053149;28;20594;-79
2023/12/26 03:01:49;;;;;;;14.33;10.20;;;4.40;99.90;;;;;;5051057;28;20230;-79
2023/12/26 03:04:15;;;;;;;13.23;10.10;;;4.40;99.90;;;;;;5052751;28;20255;-78
2023/12/26 03:06:41;;;;;;;13.30;9.97;;;4.40;99.90;;;;;;5052619;28;20185;-80
2023/12/26 03:09:07;;;;;;;14.27;10.57;;;4.30;99.90;;;;;;5056536;28;20222;-78
2023/12/26 03:11:34;;;;;;;14.47;10.50;;;4.30;99.90;;;;;;5058276;28;20199;-78
2023/12/26 03:14:01;;;;;;;15.97;11.53;;;4.20;99.90;;;;;;5058648;28;20194;-76
2023/12/26 03:16:27;;;;;;;18.57;12.60;;;4.20;99.90;;;;;;5061667;28;20180;-78
2023/12/26 03:18:52;;;;;;;16.43;11.47;;;4.20;99.90;;;;;;5066076;28;20178;-77
2023/12/26 03:21:20;;;;;;;17.30;12.17;;;4.10;99.90;;;;;;5074267;28;20201;-78
2023/12/26 03:23:46;;;;;;;15.70;11.07;;;4.10;99.90;;;;;;5079461;28;20160;-79
2023/12/26 03:26:12;;;;;;;14.93;10.67;;;4.20;99.90;;;;;;5061016;28;20192;-78
2023/12/26 03:28:38;;;;;;;16.30;11.43;;;4.20;99.90;;;;;;5057624;28;20225;-77
2023/12/26 03:31:05;;;;;;;19.30;12.03;;;4.30;99.90;;;;;;5072195;28;20266;-78
2023/12/26 03:33:31;;;;;;;15.97;11.73;;;4.30;99.90;;;;;;5067286;28;20167;-79
2023/12/26 03:35:57;;;;;;;16.10;12.27;;;4.30;99.90;;;;;;5055617;28;20677;-79
2023/12/26 03:38:23;;;;;;;15.30;11.30;;;4.30;99.90;;;;;;5056106;28;20593;-81
2023/12/26 03:40:48;;;;;;;16.67;11.30;;;4.30;99.90;;;;;;5056091;28;20533;-79
2023/12/26 03:43:16;;;;;;;18.97;9.53;;;4.40;99.90;;;;;;5056107;28;20177;-79
2023/12/26 03:45:43;;;;;;;13.70;10.10;;;4.30;99.90;;;;;;5056118;28;20227;-79
2023/12/26 03:48:09;;;;;;;13.13;10.30;;;4.40;99.90;;;;;;5056607;28;20170;-77
2023/12/26 03:50:35;;;;;;;11.87;9.37;;;4.40;99.90;;;;;;5056739;28;20225;-78
2023/12/26 03:53:01;;;;;;;11.90;10.13;;;4.30;99.90;;;;;;5061600;28;20156;-78
2023/12/26 03:55:26;;;;;;;17.10;9.47;;;4.30;99.90;;;;;;5056096;28;20254;-76
2023/12/26 03:57:52;;;;;;;11.83;9.03;;;4.30;99.90;;;;;;5055595;28;20279;-78
2023/12/26 04:00:18;;;;;;;13.97;9.57;;;4.20;99.90;;;;;;5056566;28;20227;-77
2023/12/26 04:02:44;;;;;;;14.93;9.50;;;4.20;99.90;;;;;;5090742;28;20280;-79
2023/12/26 04:05:10;;;;;;;9.33;8.20;;;4.20;99.90;;;;;;5078269;28;20185;-78
2023/12/26 04:07:37;;;;;;;11.00;8.40;;;4.20;99.90;;;;;;5098091;28;20176;-78
2023/12/26 04:10:03;;;;;;;13.47;9.70;;;4.30;99.90;;;;;;5096696;28;20661;-78
2023/12/26 04:12:29;;;;;;;11.27;8.40;;;4.30;99.90;;;;;;5103885;28;20178;-79
2023/12/26 04:14:55;;;;;;;12.87;9.03;;;4.30;99.90;;;;;;5112393;28;20589;-78
2023/12/26 04:17:21;;;;;;;10.77;7.70;;;4.30;99.90;;;;;;5096822;28;20530;-80
2023/12/26 04:19:48;;;;;;;12.07;8.50;;;4.30;99.90;;;;;;5095927;28;20166;-78
2023/12/26 04:22:13;;;;;;;12.43;9.53;;;4.30;99.90;;;;;;5095901;28;20178;-76
2023/12/26 04:24:39;;;;;;;13.37;8.57;;;4.30;99.90;;;;;;5095828;28;20169;-79
2023/12/26 04:27:06;;;;;;;10.60;8.20;;;4.30;99.90;;;;;;5096216;28;20185;-79
2023/12/26 04:29:32;;;;;;;10.00;8.07;;;4.40;99.90;;;;;;5095669;28;20181;-79
2023/12/26 04:31:58;;;;;;;10.73;7.67;;;4.40;99.90;;;;;;5095355;28;20215;-77
2023/12/26 04:34:25;;;;;;;11.90;8.07;;;4.40;99.90;;;;;;5101295;28;20188;-79
2023/12/26 04:36:51;;;;;;;9.67;6.50;;;4.50;99.90;;;;;;5116461;28;20201;-79
2023/12/26 04:39:18;;;;;;;7.47;5.80;;;4.50;99.90;;;;;;5110169;28;20631;-79
2023/12/26 04:41:47;;;;;;;6.77;6.13;;;4.50;99.90;;;;;;5097206;28;20664;-79
2023/12/26 04:44:13;;;;;;;6.43;5.47;;;4.50;99.90;;;;;;5095327;28;20652;-79
2023/12/26 04:46:39;;;;;;;8.77;5.73;;;4.50;99.90;;;;;;5095318;28;20259;-79
2023/12/26 04:49:05;;;;;;;7.00;5.90;;;4.50;99.90;;;;;;5077529;28;20182;-78
2023/12/26 04:51:31;;;;;;;6.43;5.40;;;4.40;99.90;;;;;;5094766;28;20199;-79
2023/12/26 04:53:57;;;;;;;5.30;4.80;;;4.50;99.90;;;;;;5095759;28;20183;-77
2023/12/26 04:56:23;;;;;;;5.47;4.97;;;4.60;99.90;;;;;;5093996;28;20202;-78
2023/12/26 04:58:50;;;;;;;5.40;4.83;;;4.60;99.90;;;;;;5078028;28;20638;-79
2023/12/26 05:01:17;;;;;;;6.87;4.70;;;4.60;99.90;;;;;;5095298;28;20276;-79
2023/12/26 05:03:44;;;;;;;5.17;4.47;;;4.60;99.90;;;;;;5094818;28;20625;-77
2023/12/26 05:06:11;;;;;;;4.77;4.27;;;4.60;99.90;;;;;;5095157;28;20209;-77
2023/12/26 05:08:38;;;;;;;4.67;3.90;;;4.60;99.90;;;;;;5095742;28;20182;-78
2023/12/26 05:11:07;;;;;;;4.53;3.87;;;4.60;99.90;;;;;;5076652;28;20280;-78
2023/12/26 05:13:33;;;;;;;3.77;3.37;;;4.70;99.90;;;;;;5094623;28;20172;-78
2023/12/26 05:16:05;;;;;;;3.67;3.37;;;4.60;99.90;;;;;;5094524;28;20181;-78
2023/12/26 05:18:31;;;;;;;3.47;3.20;;;4.60;99.90;;;;;;5094912;28;20172;-77
2023/12/26 05:20:58;;;;;;;3.57;3.27;;;4.70;99.90;;;;;;5094437;28;20181;-78
2023/12/26 05:23:24;;;;;;;3.20;3.00;;;4.60;99.90;;;;;;5100453;28;20182;-77
2023/12/26 05:25:50;;;;;;;3.50;3.30;;;4.70;99.90;;;;;;5107009;28;20199;-80
2023/12/26 05:28:16;;;;;;;3.40;3.07;;;4.70;99.90;;;;;;5111710;28;20216;-78
2023/12/26 05:30:42;;;;;;;4.10;2.87;;;4.70;99.90;;;;;;5100798;28;20207;-79
2023/12/26 05:33:09;;;;;;;5.80;3.37;;;4.70;99.90;;;;;;5118056;28;20188;-79
2023/12/26 05:35:35;;;;;;;4.13;3.30;;;4.70;99.90;;;;;;5107229;28;20233;-77
2023/12/26 05:38:01;;;;;;;3.10;2.90;;;4.70;99.90;;;;;;5103992;28;20176;-76
2023/12/26 05:40:27;;;;;;;3.10;2.87;;;4.70;99.90;;;;;;5101245;28;20182;-80
2023/12/26 05:42:52;;;;;;;2.90;2.70;;;4.70;99.90;;;;;;5094138;28;20689;-78
2023/12/26 05:45:18;;;;;;;2.93;2.73;;;4.70;99.90;;;;;;5094329;28;20176;-80
2023/12/26 05:47:44;;;;;;;2.90;2.70;;;4.70;99.90;;;;;;5076341;28;20666;-78
2023/12/26 05:50:10;;;;;;;2.80;2.60;;;4.70;99.90;;;;;;5096425;28;20617;-78
2023/12/26 05:52:36;;;;;;;2.90;2.70;;;4.70;99.90;;;;;;5076935;28;20258;-79
2023/12/26 05:55:02;;;;;;;3.37;3.17;;;4.80;99.90;;;;;;5094241;28;20257;-78
2023/12/26 05:57:27;;;;;;;3.60;2.83;;;4.70;99.90;;;;;;5075830;28;20231;-77
2023/12/26 05:59:53;;;;;;;3.13;2.90;;;4.70;99.90;;;;;;5094515;28;20168;-80
2023/12/26 06:02:19;;;;;;;2.83;2.63;;;4.60;99.90;;;;;;5094534;28;20281;-77
2023/12/26 06:04:45;;;;;;;3.03;2.83;;;4.60;99.90;;;;;;5094430;28;20174;-79
2023/12/26 06:07:11;;;;;;;2.93;2.70;;;4.50;99.90;;;;;;5094207;28;20584;-76
2023/12/26 06:09:38;;;;;;;3.80;3.50;;;4.50;99.90;;;;;;5093745;28;20169;-77
2023/12/26 06:12:05;;;;;;;3.87;2.80;;;4.50;99.90;;;;;;5093919;28;20217;-77
2023/12/26 06:14:30;;;;;;;2.87;2.63;;;4.60;99.90;;;;;;5093612;28;20543;-77
2023/12/26 06:16:57;;;;;;;5.33;2.93;;;4.70;99.90;;;;;;5086394;28;20177;-77
2023/12/26 06:19:23;;;;;;;3.00;2.50;;;4.70;99.90;;;;;;5074964;28;20202;-76
2023/12/26 06:21:49;;;;;;;2.70;2.50;;;4.70;99.90;;;;;;5090127;28;20632;-78
2023/12/26 06:24:14;;;;;;;3.03;2.73;;;4.70;99.90;;;;;;5057201;28;20187;-79
2023/12/26 06:26:40;;;;;;;3.87;2.77;;;4.80;99.90;;;;;;5053365;28;20176;-78
2023/12/26 06:29:06;;;;;;;3.87;2.80;;;4.80;99.90;;;;;;5052961;28;20203;-79
2023/12/26 06:31:32;;;;;;;2.50;2.40;;;4.80;99.90;;;;;;5036123;28;20235;-77
2023/12/26 06:33:57;;;;;;;3.60;2.77;;;4.80;99.90;;;;;;5063923;28;20190;-78
2023/12/26 06:36:27;;;;;;;3.67;3.37;;;4.90;99.90;;;;;;5058752;28;20344;-78
2023/12/26 06:38:56;;;;;;;3.57;3.10;;;4.90;99.90;;;;;;5066452;28;20189;-77
2023/12/26 06:41:21;;;;;;;3.30;3.10;;;5.00;99.90;;;;;;5061824;28;20186;-79
2023/12/26 06:43:47;;;;;;;3.03;2.83;;;5.00;99.90;;;;;;5055048;28;20619;-76
2023/12/26 06:46:14;;;;;;;3.30;3.00;;;5.10;99.90;;;;;;5053884;28;20586;-78
2023/12/26 06:48:40;;;;;;;3.47;3.17;;;5.00;99.90;;;;;;5089817;28;20195;-75
2023/12/26 06:51:06;;;;;;;3.27;3.07;;;5.00;99.90;;;;;;5109088;28;20213;-78
2023/12/26 06:53:32;;;;;;;4.40;3.40;;;5.10;99.90;;;;;;5059023;28;20183;-79
2023/12/26 06:55:57;;;;;;;3.63;3.33;;;5.10;99.90;;;;;;5053406;28;20242;-79
2023/12/26 06:58:23;;;;;;;6.00;3.60;;;5.10;99.90;;;;;;5053011;28;20273;-77
2023/12/26 07:00:49;;;;;;;3.67;3.37;;;5.20;99.90;;;;;;5053715;28;20181;-81
2023/12/26 07:03:15;;;;;;;4.53;3.40;;;5.20;99.90;;;;;;5047603;28;20226;-79
2023/12/26 07:05:40;;;;;;;3.80;3.13;;;5.20;99.90;;;;;;5053331;28;20217;-79
2023/12/26 07:08:06;;;;;;;3.13;2.90;;;5.20;99.90;;;;;;5052679;28;20263;-78
2023/12/26 07:10:32;;;;;;;4.10;3.33;;;5.20;99.90;;;;;;5052877;28;20197;-78
2023/12/26 07:12:58;;;;;;;3.53;3.23;;;5.20;99.90;;;;;;5052348;28;20185;-80
2023/12/26 07:15:25;;;;;;;3.00;2.80;;;5.40;99.90;;;;;;5035582;28;20319;-77
2023/12/26 07:17:51;;;;;;;4.27;3.00;;;5.60;99.90;;;;;;5053154;28;20539;-77
2023/12/26 07:20:17;;;;;;;4.07;3.07;;;5.70;99.90;;;;;;5055431;28;20248;-78
2023/12/26 07:22:43;;;;;;;3.30;3.07;;;5.80;99.90;;;;;;5076050;28;20191;-79
2023/12/26 07:25:10;;;;;;;3.70;3.40;;;5.90;99.90;;;;;;5055865;28;20171;-79
2023/12/26 07:27:35;;;;;;;3.93;3.50;;;6.00;99.90;;;;;;5051808;28;20183;-78
2023/12/26 07:30:01;;;;;;;3.83;3.43;;;6.00;99.90;;;;;;5051161;28;20191;-79
2023/12/26 07:32:27;;;;;;;3.60;3.30;;;5.90;99.90;;;;;;5052080;28;20206;-79
2023/12/26 07:34:53;;;;;;;3.80;3.33;;;6.00;99.90;;;;;;5052756;28;20268;-76
2023/12/26 07:37:19;;;;;;;3.30;3.10;;;6.00;99.90;;;;;;5053001;28;20182;-78
2023/12/26 07:39:45;;;;;;;4.93;3.50;;;5.90;99.90;;;;;;5054169;28;20187;-77
2023/12/26 07:42:10;;;;;;;5.43;3.47;;;5.90;99.90;;;;;;5053576;28;20179;-80
2023/12/26 07:44:36;;;;;;;5.57;4.20;;;5.90;99.90;;;;;;5060581;28;20176;-76
2023/12/26 07:47:02;;;;;;;4.87;3.27;;;5.90;99.90;;;;;;5055502;28;20183;-79
2023/12/26 07:49:28;;;;;;;3.77;3.47;;;5.90;99.90;;;;;;5034657;28;20268;-77
2023/12/26 07:51:53;;;;;;;4.00;3.63;;;6.00;99.90;;;;;;5052349;28;20211;-78
2023/12/26 07:54:19;;;;;;;6.40;4.13;;;6.00;99.90;;;;;;5032493;28;20192;-78
2023/12/26 07:56:47;;;;;;;6.37;4.63;;;6.00;99.90;;;;;;5018305;28;20184;-78
2023/12/26 07:59:14;;;;;;;8.73;5.20;;;5.80;99.90;;;;;;5058554;28;20184;-78
2023/12/26 08:01:39;;;;;;;7.00;5.40;;;5.80;99.90;;;;;;5052049;28;20237;-79
2023/12/26 08:04:05;;;;;;;6.00;4.70;;;5.70;99.90;;;;;;5078799;28;20268;-76
2023/12/26 08:06:31;;;;;;;6.23;5.27;;;5.70;99.90;;;;;;5082382;28;20173;-79
2023/12/26 08:08:58;;;;;;;8.53;5.87;;;5.80;99.90;;;;;;5094732;28;20181;-78
2023/12/26 08:11:24;;;;;;;7.13;6.43;;;5.80;99.90;;;;;;5096220;28;20220;-78
2023/12/26 08:13:50;;;;;;;9.40;8.23;;;5.80;99.90;;;;;;5088214;28;20191;-76
2023/12/26 08:16:16;;;;;;;21.43;13.17;;;5.90;99.90;;;;;;5078086;28;20603;-78
2023/12/26 08:18:42;;;;;;;19.50;12.80;;;5.90;99.90;;;;;;5075685;28;20260;-78
2023/12/26 08:21:09;;;;;;;20.67;12.17;;;5.90;99.90;;;;;;5075465;28;20221;-80
2023/12/26 08:23:36;;;;;;;30.83;12.77;;;6.10;99.90;;;;;;5079228;28;20236;-79
2023/12/26 08:26:07;;;;;;;26.77;12.83;;;6.10;99.90;;;;;;5076376;28;20180;-79
2023/12/26 08:28:34;;;;;;;31.07;13.63;;;6.10;99.90;;;;;;5075272;28;20211;-77
2023/12/26 08:31:00;;;;;;;31.60;14.20;;;6.20;99.90;;;;;;5074248;28;20200;-76
2023/12/26 08:33:26;;;;;;;27.40;13.47;;;6.20;99.90;;;;;;5073748;28;20196;-76
2023/12/26 08:35:52;;;;;;;21.53;11.97;;;6.30;99.90;;;;;;5075722;28;20258;-77
2023/12/26 08:38:18;;;;;;;17.67;11.43;;;6.30;99.90;;;;;;5084730;28;20185;-77
2023/12/26 08:40:44;;;;;;;16.77;10.63;;;6.40;99.90;;;;;;5078347;28;20194;-75
2023/12/26 08:43:10;;;;;;;23.40;11.50;;;6.50;99.90;;;;;;5074197;28;20179;-77
2023/12/26 08:45:36;;;;;;;18.30;11.53;;;6.60;99.90;;;;;;5074150;28;20177;-80
2023/12/26 08:48:02;;;;;;;17.20;10.50;;;6.60;99.90;;;;;;5075216;28;20248;-78
2023/12/26 08:50:28;;;;;;;17.73;9.63;;;6.70;99.90;;;;;;5075297;28;20571;-76
2023/12/26 08:52:53;;;;;;;13.93;8.67;;;6.70;99.90;;;;;;5075652;28;20182;-77
2023/12/26 08:55:19;;;;;;;14.17;8.50;;;6.80;99.90;;;;;;5075082;28;20228;-79
2023/12/26 08:57:45;;;;;;;11.43;8.10;;;6.90;99.90;;;;;;5075154;28;20187;-81
2023/12/26 09:00:13;;;;;;;11.53;7.80;;;7.00;99.90;;;;;;5073979;28;20180;-80
2023/12/26 09:02:44;;;;;;;9.37;7.63;;;7.00;99.90;;;;;;5060728;28;20233;-78
2023/12/26 09:05:11;;;;;;;11.17;7.83;;;7.00;99.90;;;;;;5055062;28;20567;-77
2023/12/26 09:07:40;;;;;;;9.40;7.63;;;7.10;99.90;;;;;;5057000;28;20213;-77
2023/12/26 09:10:06;;;;;;;9.30;7.20;;;7.20;99.90;;;;;;5053931;28;20178;-77
2023/12/26 09:12:32;;;;;;;8.20;6.87;;;7.20;99.90;;;;;;5054430;28;20183;-75
2023/12/26 09:14:58;;;;;;;8.40;7.20;;;7.30;99.90;;;;;;5054718;28;20535;-76
2023/12/26 09:17:24;;;;;;;9.10;7.87;;;7.20;99.90;;;;;;5063374;28;20183;-78
2023/12/26 09:19:50;;;;;;;12.43;8.23;;;7.10;99.90;;;;;;5075654;28;20187;-76
2023/12/26 09:22:15;;;;;;;11.73;8.90;;;7.00;99.90;;;;;;5055135;28;20189;-77
2023/12/26 09:24:44;;;;;;;13.13;8.27;;;6.90;99.90;;;;;;5054233;28;20187;-79
2023/12/26 09:27:10;;;;;;;9.87;8.50;;;6.80;99.90;;;;;;5054404;28;20197;-79
2023/12/26 09:29:36;;;;;;;9.63;8.57;;;6.70;99.90;;;;;;5069367;28;20218;-79
2023/12/26 09:32:01;;;;;;;11.60;9.67;;;6.70;99.90;;;;;;5054757;28;20214;-79
2023/12/26 09:34:27;;;;;;;15.13;9.73;;;6.70;99.90;;;;;;5053647;28;20258;-78
2023/12/26 09:36:53;;;;;;;11.40;9.53;;;6.60;99.90;;;;;;5054005;28;20174;-80
2023/12/26 09:39:19;;;;;;;13.67;9.80;;;6.70;99.90;;;;;;5036725;28;20180;-78
2023/12/26 09:41:54;;;;;;;12.97;9.07;;;6.70;99.90;;;;;;5054413;28;20190;-78
2023/12/26 09:44:21;;;;;;;10.93;9.07;;;6.80;99.90;;;;;;5054689;28;20202;-79
2023/12/26 09:46:47;;;;;;;10.87;8.67;;;6.70;99.90;;;;;;5054762;28;20261;-78
2023/12/26 09:49:13;;;;;;;14.00;9.10;;;6.80;99.90;;;;;;5053876;28;20730;-77
2023/12/26 09:51:44;;;;;;;15.07;9.20;;;6.90;99.90;;;;;;5056730;28;20558;-76
2023/12/26 09:54:12;;;;;;;12.80;9.27;;;6.90;99.90;;;;;;5070157;28;20177;-79
2023/12/26 09:56:42;;;;;;;13.13;9.63;;;7.00;99.90;;;;;;5065132;28;20183;-78
2023/12/26 09:59:09;;;;;;;9.57;8.53;;;7.20;99.90;;;;;;5035980;28;20183;-76
2023/12/26 10:01:35;;;;;;;12.73;9.77;;;7.10;99.90;;;;;;5053011;28;20317;-79
2023/12/26 10:04:03;;;;;;;12.40;9.47;;;7.10;99.90;;;;;;5053634;28;20262;-79
2023/12/26 10:06:29;;;;;;;11.37;9.30;;;7.30;99.90;;;;;;5053587;28;20619;-79
2023/12/26 10:08:55;;;;;;;13.73;10.30;;;7.40;99.90;;;;;;5053365;28;20226;-78
2023/12/26 10:11:21;;;;;;;10.37;8.93;;;7.50;99.90;;;;;;5053502;28;20200;-79
2023/12/26 10:13:53;;;;;;;10.50;8.77;;;7.50;99.90;;;;;;5053507;28;20178;-78
2023/12/26 10:16:19;;;;;;;13.23;9.13;;;7.50;99.90;;;;;;5069331;28;20191;-79
2023/12/26 10:18:46;;;;;;;13.53;9.50;;;7.50;99.90;;;;;;5054535;28;20244;-79
2023/12/26 10:21:13;;;;;;;10.10;8.20;;;7.60;99.90;;;;;;5053794;28;20768;-77
2023/12/26 10:23:38;;;;;;;11.17;8.27;;;7.60;99.90;;;;;;5053790;28;20174;-80
2023/12/26 10:26:05;;;;;;;9.80;8.27;;;7.60;99.90;;;;;;5053850;28;20637;-78
2023/12/26 10:28:41;;;;;;;9.50;7.93;;;7.50;99.90;;;;;;5053874;28;20179;-78
2023/12/26 10:31:14;;;;;;;9.53;8.17;;;7.50;99.90;;;;;;5058183;28;20196;-79
2023/12/26 10:33:41;;;;;;;13.07;9.67;;;7.50;99.90;;;;;;5070252;28;20155;-78
2023/12/26 10:36:08;;;;;;;10.63;8.80;;;7.50;99.90;;;;;;5075179;28;20180;-76
2023/12/26 10:38:34;;;;;;;12.03;9.57;;;7.60;99.90;;;;;;5073424;28;20167;-77
2023/12/26 10:41:06;;;;;;;10.73;8.90;;;7.60;99.90;;;;;;5058079;28;20175;-77
2023/12/26 10:43:33;;;;;;;10.17;9.07;;;7.60;99.90;;;;;;5053831;28;20164;-79
2023/12/26 10:45:59;;;;;;;11.27;7.63;;;7.60;99.90;;;;;;5053067;28;20551;-76
2023/12/26 10:48:32;;;;;;;8.50;7.57;;;7.70;99.90;;;;;;5066051;28;20175;-78
2023/12/26 10:50:59;;;;;;;8.70;7.30;;;7.70;99.90;;;;;;5053364;28;20199;-79
2023/12/26 10:53:36;;;;;;;10.57;7.70;;;7.80;99.90;;;;;;5053109;28;20174;-78
2023/12/26 10:56:03;;;;;;;9.97;7.80;;;7.90;99.90;;;;;;5056840;28;20160;-77
2023/12/26 10:58:31;;;;;;;12.47;7.87;;;7.70;99.90;;;;;;5053163;28;20297;-77
2023/12/26 11:01:01;;;;;;;11.93;9.87;;;7.80;99.90;;;;;;5059191;28;20185;-77
2023/12/26 13:51:53;;;;;;;6.17;5.33;;;11.30;99.90;;;;;;5059431;28;20219;-79
2023/12/26 13:54:21;;;;;;;4.87;4.47;;;11.30;99.90;;;;;;5055362;28;20170;-78
2023/12/26 13:56:46;;;;;;;5.63;4.77;;;11.30;99.90;;;;;;5054392;28;20180;-78
2023/12/26 13:59:12;;;;;;;5.97;5.37;;;11.20;99.90;;;;;;5054333;28;20172;-78
2023/12/26 14:01:39;;;;;;;9.87;7.93;;;11.30;99.90;;;;;;5045286;28;20236;-78
2023/12/26 14:04:05;;;;;;;33.70;21.47;;;11.20;99.90;;;;;;5077675;28;20183;-77
2023/12/26 14:06:33;;;;;;;22.20;14.23;;;11.20;99.90;;;;;;5085401;28;20202;-78
2023/12/26 14:08:59;;;;;;;12.53;9.00;;;11.30;99.90;;;;;;5080672;28;20316;-78
2023/12/26 14:11:26;;;;;;;14.87;11.90;;;11.20;99.90;;;;;;5073751;28;20297;-77
2023/12/26 14:13:52;;;;;;;14.17;9.57;;;11.20;99.90;;;;;;5074492;28;20695;-79
2023/12/26 14:16:22;;;;;;;10.67;8.37;;;11.10;99.90;;;;;;5073967;28;20254;-78
2023/12/26 14:18:48;;;;;;;8.07;7.17;;;11.10;99.90;;;;;;5075308;28;20180;-78
2023/12/26 14:21:15;;;;;;;6.83;6.13;;;11.10;99.90;;;;;;5075696;28;20182;-76
2023/12/26 14:23:41;;;;;;;8.33;6.60;;;11.10;99.90;;;;;;5072916;28;20181;-80
2023/12/26 14:26:07;;;;;;;8.23;6.70;;;11.10;99.90;;;;;;5073567;28;20811;-77
2023/12/26 14:28:33;;;;;;;7.80;7.00;;;11.00;99.90;;;;;;5074088;28;20527;-80
2023/12/26 14:30:59;;;;;;;8.87;7.33;;;11.00;99.90;;;;;;5073500;28;20217;-78
2023/12/26 14:33:25;;;;;;;9.70;7.23;;;10.90;99.90;;;;;;5074992;28;20181;-80
2023/12/26 14:35:51;;;;;;;13.97;9.30;;;10.90;99.90;;;;;;5074119;28;20175;-79
2023/12/26 14:38:17;;;;;;;11.57;8.07;;;10.80;99.90;;;;;;5081784;28;20194;-79
2023/12/26 14:40:46;;;;;;;10.57;7.33;;;10.70;99.90;;;;;;5082398;28;20225;-78
2023/12/26 14:43:12;;;;;;;8.50;6.33;;;10.70;99.90;;;;;;5074181;28;20186;-78
2023/12/26 14:45:38;;;;;;;9.63;7.33;;;10.70;99.90;;;;;;5085660;28;20167;-78
2023/12/26 14:48:03;;;;;;;8.63;7.13;;;10.70;99.90;;;;;;5089355;28;20194;-78
2023/12/26 14:50:36;;;;;;;9.77;7.43;;;10.60;99.90;;;;;;5076893;28;20211;-80
2023/12/26 14:53:01;;;;;;;9.03;7.70;;;10.60;99.90;;;;;;5074505;28;20230;-78
2023/12/26 14:55:27;;;;;;;10.73;6.47;;;10.50;99.90;;;;;;5076475;28;20277;-78
2023/12/26 14:57:53;;;;;;;11.17;7.37;;;10.50;99.90;;;;;;5077091;28;20192;-78
2023/12/26 15:00:19;;;;;;;9.93;6.97;;;10.40;99.90;;;;;;5074278;28;20188;-78
2023/12/26 15:02:46;;;;;;;9.47;6.53;;;10.40;99.90;;;;;;5059417;28;20294;-78
2023/12/26 15:05:13;;;;;;;8.70;6.63;;;10.30;99.90;;;;;;5053787;28;20580;-76
2023/12/26 15:07:38;;;;;;;10.77;6.57;;;10.30;99.90;;;;;;5039019;28;20270;-80
2023/12/26 15:10:05;;;;;;;9.07;6.40;;;10.30;99.90;;;;;;5075997;28;20627;-77
2023/12/26 15:12:31;;;;;;;8.07;6.63;;;10.20;99.90;;;;;;5074534;28;20175;-78
2023/12/26 15:14:56;;;;;;;7.33;6.40;;;10.20;99.90;;;;;;5062363;28;20157;-77
2023/12/26 15:17:22;;;;;;;6.47;5.60;;;10.10;99.90;;;;;;5078538;28;20183;-77
2023/12/26 15:19:48;;;;;;;12.67;8.43;;;10.00;99.90;;;;;;5057562;28;20700;-78
2023/12/26 15:22:15;;;;;;;8.77;5.40;;;10.00;99.90;;;;;;5057081;28;20542;-78
2023/12/26 15:24:41;;;;;;;12.93;6.70;;;10.00;99.90;;;;;;5057669;28;20180;-77
2023/12/26 15:27:07;;;;;;;7.33;6.07;;;9.80;99.90;;;;;;5058173;28;20172;-76
2023/12/26 15:29:32;;;;;;;7.93;6.33;;;9.80;99.90;;;;;;5068518;28;20179;-77
2023/12/26 15:31:58;;;;;;;9.97;7.13;;;9.80;99.90;;;;;;5080778;28;20225;-81
2023/12/26 15:34:24;;;;;;;8.27;6.47;;;9.70;99.90;;;;;;5071992;28;20187;-80